createdAt,value
2022-12-03T00:00:14.188Z,9.30
2022-12-03T00:02:42.431Z,8.90
2022-12-03T00:05:11.099Z,9.35
2022-12-03T00:07:39.009Z,9.23
2022-12-03T00:10:08.463Z,9.57
2022-12-03T00:12:37.714Z,9.25
2022-12-03T00:15:06.062Z,9.20
2022-12-03T00:17:33.841Z,9.13
2022-12-03T00:20:01.668Z,8.95
2022-12-03T00:22:29.380Z,8.68
2022-12-03T00:24:57.063Z,8.35
2022-12-03T00:27:24.785Z,8.35
2022-12-03T00:29:53.863Z,9.48
2022-12-03T00:32:21.851Z,8.02
2022-12-03T00:34:49.688Z,8.15
2022-12-03T00:37:17.743Z,8.23
2022-12-03T00:39:45.509Z,8.15
2022-12-03T00:42:13.308Z,8.35
2022-12-03T00:44:41.120Z,8.27
2022-12-03T00:47:12.717Z,8.55
2022-12-03T00:49:41.229Z,8.75
2022-12-03T00:52:08.950Z,8.70
2022-12-03T00:54:36.644Z,7.43
2022-12-03T00:57:04.800Z,7.65
2022-12-03T00:59:32.515Z,8.02
2022-12-03T01:02:00.343Z,7.82
2022-12-03T01:04:29.561Z,7.03
2022-12-03T01:06:57.268Z,7.53
2022-12-03T01:09:24.956Z,6.93
2022-12-03T01:11:52.821Z,6.35
2022-12-03T01:14:21.355Z,6.85
2022-12-03T01:16:49.901Z,6.30
2022-12-03T01:19:18.333Z,6.20
2022-12-03T01:21:49.815Z,6.75
2022-12-03T01:24:18.662Z,6.47
2022-12-03T01:26:46.482Z,5.85
2022-12-03T01:29:14.671Z,7.10
2022-12-03T01:31:59.868Z,6.22
2022-12-03T01:34:27.570Z,6.97
2022-12-03T01:36:56.668Z,6.57
2022-12-03T01:39:24.642Z,6.97
2022-12-03T01:41:53.745Z,7.20
2022-12-03T01:44:23.989Z,6.63
2022-12-03T01:46:54.243Z,7.32
2022-12-03T01:49:24.838Z,7.22
2022-12-03T01:51:53.652Z,7.13
2022-12-03T01:54:27.808Z,7.40
2022-12-03T01:56:56.535Z,6.70
2022-12-03T01:59:33.921Z,6.75
2022-12-03T02:02:07.212Z,6.63
2022-12-03T02:04:35.056Z,7.22
2022-12-03T02:07:18.127Z,7.18
2022-12-03T02:09:47.259Z,7.35
2022-12-03T02:12:18.636Z,7.78
2022-12-03T02:14:46.746Z,7.68
2022-12-03T02:17:14.704Z,7.38
2022-12-03T02:19:42.432Z,8.68
2022-12-03T02:22:27.710Z,8.40
2022-12-03T02:25:11.313Z,7.93
2022-12-03T02:27:39.266Z,8.07
2022-12-03T02:30:09.086Z,7.72
2022-12-03T02:32:37.543Z,7.88
2022-12-03T02:35:05.825Z,7.85
2022-12-03T02:37:37.700Z,8.23
2022-12-03T02:40:10.568Z,7.57
2022-12-03T02:42:39.319Z,8.45
2022-12-03T02:45:12.235Z,8.60
2022-12-03T02:47:43.460Z,8.27
2022-12-03T02:50:13.885Z,7.90
2022-12-03T02:52:43.386Z,9.27
2022-12-03T02:55:12.603Z,8.95
2022-12-03T02:57:42.509Z,8.98
2022-12-03T03:00:12.212Z,9.20
2022-12-03T03:02:42.402Z,9.15
2022-12-03T03:05:11.787Z,9.07
2022-12-03T03:07:40.609Z,8.70
2022-12-03T03:10:12.740Z,9.10
2022-12-03T03:12:41.998Z,9.02
2022-12-03T03:15:12.231Z,9.20
2022-12-03T03:17:42.111Z,9.30
2022-12-03T03:20:11.746Z,9.20
2022-12-03T03:22:41.582Z,9.90
2022-12-03T03:25:11.786Z,9.32
2022-12-03T03:27:42.003Z,9.02
2022-12-03T03:30:12.391Z,8.88
2022-12-03T03:32:40.995Z,8.85
2022-12-03T03:35:11.835Z,8.32
2022-12-03T03:37:40.269Z,8.82
2022-12-03T03:40:09.128Z,8.40
2022-12-03T03:42:38.641Z,8.50
2022-12-03T03:45:10.090Z,9.52
2022-12-03T03:47:38.384Z,8.90
2022-12-03T03:50:07.913Z,8.98
2022-12-03T03:52:36.325Z,8.48
2022-12-03T03:55:04.298Z,9.57
2022-12-03T03:57:31.988Z,9.18
2022-12-03T04:00:00.390Z,8.43
2022-12-03T04:02:29.449Z,8.70
2022-12-03T04:04:57.264Z,9.65
2022-12-03T04:07:25.262Z,8.45
2022-12-03T04:09:52.934Z,8.85
2022-12-03T04:12:38.225Z,8.38
2022-12-03T04:15:07.925Z,8.23
2022-12-03T04:17:38.087Z,7.95
2022-12-03T04:20:07.015Z,8.65
2022-12-03T04:22:39.825Z,8.35
2022-12-03T04:25:26.584Z,8.13
2022-12-03T04:28:12.426Z,8.73
2022-12-03T04:30:40.209Z,8.90
2022-12-03T04:33:26.915Z,8.43
2022-12-03T04:35:54.711Z,8.15
2022-12-03T04:38:22.439Z,8.82
2022-12-03T04:41:03.713Z,8.07
2022-12-03T04:43:33.375Z,7.80
2022-12-03T04:46:02.424Z,8.57
2022-12-03T04:48:32.057Z,7.45
2022-12-03T04:50:59.746Z,8.50
2022-12-03T04:53:27.402Z,8.73
2022-12-03T04:55:55.107Z,8.38
2022-12-03T04:58:22.775Z,7.63
2022-12-03T05:00:50.545Z,7.97
2022-12-03T05:03:18.239Z,7.80
2022-12-03T05:05:50.187Z,8.60
2022-12-03T05:08:17.892Z,7.75
2022-12-03T05:10:45.633Z,8.90
2022-12-03T05:13:13.393Z,8.07
2022-12-03T05:15:41.040Z,8.52
2022-12-03T05:18:09.017Z,7.65
2022-12-03T05:20:41.667Z,8.07
2022-12-03T05:23:11.407Z,7.50
2022-12-03T05:25:39.196Z,7.70
2022-12-03T05:28:07.572Z,7.38
2022-12-03T05:30:35.811Z,7.53
2022-12-03T05:33:03.890Z,7.10
2022-12-03T05:35:31.562Z,7.22
2022-12-03T05:37:59.284Z,6.90
2022-12-03T05:40:29.065Z,7.38
2022-12-03T05:42:56.826Z,7.22
2022-12-03T05:45:26.464Z,7.60
2022-12-03T05:47:54.536Z,7.35
2022-12-03T05:50:23.558Z,7.88
2022-12-03T05:52:51.840Z,7.30
2022-12-03T05:55:20.439Z,7.47
2022-12-03T05:57:49.559Z,8.00
2022-12-03T06:00:20.015Z,7.07
2022-12-03T06:02:47.846Z,7.10
2022-12-03T06:05:17.054Z,7.22
2022-12-03T06:07:44.753Z,7.13
2022-12-03T06:10:15.216Z,7.38
2022-12-03T06:12:43.369Z,7.00
2022-12-03T06:15:14.015Z,7.38
2022-12-03T06:17:42.173Z,7.45
2022-12-03T06:20:13.812Z,7.80
2022-12-03T06:22:41.586Z,7.07
2022-12-03T06:25:10.102Z,7.43
2022-12-03T06:27:37.830Z,7.35
2022-12-03T06:30:08.749Z,7.05
2022-12-03T06:32:37.890Z,6.80
2022-12-03T06:35:06.140Z,7.60
2022-12-03T06:37:33.844Z,6.45
2022-12-03T06:40:01.542Z,6.65
2022-12-03T06:42:29.256Z,7.40
2022-12-03T06:44:57.250Z,8.18
2022-12-03T06:47:25.094Z,7.20
2022-12-03T06:49:54.204Z,7.10
2022-12-03T06:52:21.911Z,7.70
2022-12-03T06:54:49.591Z,7.40
2022-12-03T06:57:17.419Z,6.72
2022-12-03T06:59:45.248Z,7.35
2022-12-03T07:02:13.370Z,7.20
2022-12-03T07:04:46.125Z,6.82
2022-12-03T07:07:15.617Z,6.50
2022-12-03T07:09:43.354Z,7.47
2022-12-03T07:12:11.180Z,7.22
2022-12-03T07:14:38.923Z,7.28
2022-12-03T07:17:06.678Z,6.72
2022-12-03T07:19:34.448Z,7.43
2022-12-03T07:22:02.235Z,7.90
2022-12-03T07:24:31.468Z,7.65
2022-12-03T07:26:59.255Z,7.85
2022-12-03T07:29:27.002Z,7.18
2022-12-03T07:31:54.761Z,6.90
2022-12-03T07:34:22.612Z,7.47
2022-12-03T07:36:50.353Z,7.07
2022-12-03T07:39:18.100Z,7.10
2022-12-03T07:41:47.376Z,6.68
2022-12-03T07:44:15.487Z,6.85
2022-12-03T07:46:43.425Z,7.35
2022-12-03T07:49:12.051Z,7.63
2022-12-03T07:51:40.064Z,7.20
2022-12-03T07:54:08.124Z,7.40
2022-12-03T07:56:35.943Z,7.18
2022-12-03T07:59:05.136Z,7.47
2022-12-03T08:01:32.979Z,7.43
2022-12-03T08:04:00.784Z,8.13
2022-12-03T08:06:28.501Z,8.45
2022-12-03T08:08:56.304Z,9.55
2022-12-03T08:11:24.322Z,8.68
2022-12-03T08:13:52.059Z,8.10
2022-12-03T08:16:23.228Z,8.35
2022-12-03T08:18:51.992Z,8.10
2022-12-03T08:21:21.603Z,7.45
2022-12-03T08:23:49.576Z,8.25
2022-12-03T08:26:23.585Z,7.82
2022-12-03T08:28:52.320Z,8.05
2022-12-03T08:31:26.874Z,7.78
2022-12-03T08:34:15.952Z,8.10
2022-12-03T08:36:43.728Z,7.70
2022-12-03T08:39:30.309Z,7.90
2022-12-03T08:42:18.678Z,7.40
2022-12-03T08:44:46.439Z,7.80
2022-12-03T08:47:20.843Z,7.57
2022-12-03T08:49:54.834Z,7.45
2022-12-03T08:52:27.361Z,7.55
2022-12-03T08:54:57.356Z,7.57
2022-12-03T08:57:30.069Z,7.32
2022-12-03T09:00:01.459Z,8.05
2022-12-03T09:02:34.075Z,7.82
2022-12-03T09:05:14.213Z,7.45
2022-12-03T09:07:42.088Z,7.38
2022-12-03T09:10:10.475Z,7.72
2022-12-03T09:12:38.874Z,6.47
2022-12-03T09:15:07.588Z,7.63
2022-12-03T09:17:36.637Z,7.43
2022-12-03T09:20:05.780Z,7.25
2022-12-03T09:22:33.587Z,7.90
2022-12-03T09:25:01.381Z,6.95
2022-12-03T09:27:29.082Z,7.57
2022-12-03T09:29:57.124Z,7.45
2022-12-03T09:32:25.072Z,8.45
2022-12-03T09:34:54.650Z,7.22
2022-12-03T09:37:23.077Z,7.53
2022-12-03T09:39:50.808Z,7.75
2022-12-03T09:42:18.713Z,7.68
2022-12-03T09:44:46.988Z,7.03
2022-12-03T09:47:14.917Z,7.40
2022-12-03T09:49:43.291Z,7.63
2022-12-03T09:52:25.473Z,7.50
2022-12-03T09:54:54.560Z,8.30
2022-12-03T09:57:22.547Z,8.15
2022-12-03T09:59:50.425Z,8.15
2022-12-03T10:02:23.213Z,7.60
2022-12-03T10:04:51.210Z,7.90
2022-12-03T10:07:20.541Z,6.63
2022-12-03T10:09:48.334Z,8.35
2022-12-03T10:12:16.342Z,8.05
2022-12-03T10:14:44.157Z,8.13
2022-12-03T10:17:12.929Z,8.25
2022-12-03T10:19:42.641Z,8.73
2022-12-03T10:22:10.407Z,8.35
2022-12-03T10:24:40.035Z,8.20
2022-12-03T10:27:22.983Z,8.38
2022-12-03T10:29:58.641Z,8.52
2022-12-03T10:32:27.963Z,8.95
2022-12-03T10:35:09.595Z,9.05
2022-12-03T10:37:37.336Z,8.65
2022-12-03T10:40:09.374Z,7.72
2022-12-03T10:42:39.112Z,8.63
2022-12-03T10:45:19.004Z,8.60
2022-12-03T10:48:06.090Z,8.38
2022-12-03T10:50:34.495Z,8.43
2022-12-03T10:53:02.634Z,9.38
2022-12-03T10:55:38.551Z,8.80
2022-12-03T10:58:06.347Z,9.35
2022-12-03T11:00:34.139Z,9.00
2022-12-03T11:03:02.561Z,9.85
2022-12-03T11:05:30.438Z,9.38
2022-12-03T11:07:58.204Z,8.93
2022-12-03T11:10:26.324Z,8.73
2022-12-03T11:13:44.473Z,10.73
2022-12-03T11:19:02.031Z,9.60
2022-12-03T11:21:32.791Z,9.30
2022-12-03T11:24:19.725Z,8.68
2022-12-03T11:27:18.733Z,9.48
2022-12-03T11:29:56.096Z,9.60
2022-12-03T11:33:07.237Z,10.70
2022-12-03T11:36:14.035Z,8.93
2022-12-03T11:38:54.935Z,9.27
2022-12-03T11:41:25.588Z,10.73
2022-12-03T11:45:14.722Z,9.95
2022-12-03T11:47:44.764Z,10.55
2022-12-03T11:50:22.378Z,10.32
2022-12-03T11:52:55.591Z,8.13
2022-12-03T11:55:31.059Z,10.10
2022-12-03T11:58:00.574Z,10.63
2022-12-03T12:00:29.103Z,10.43
2022-12-03T12:02:58.576Z,10.60
2022-12-03T12:05:29.582Z,10.88
2022-12-03T12:07:57.990Z,10.18
2022-12-03T12:10:45.670Z,11.90
2022-12-03T12:13:52.710Z,10.13
2022-12-03T12:16:39.693Z,10.88
2022-12-03T12:19:33.891Z,9.02
2022-12-03T12:22:16.932Z,10.32
2022-12-03T12:24:51.543Z,9.80
2022-12-03T12:27:22.586Z,10.52
2022-12-03T12:29:55.986Z,9.90
2022-12-03T12:32:27.102Z,11.02
2022-12-03T12:34:58.244Z,10.77
2022-12-03T12:37:32.594Z,10.50
2022-12-03T12:40:01.958Z,10.40
2022-12-03T12:42:33.872Z,11.27
2022-12-03T12:45:09.772Z,10.63
2022-12-03T12:50:11.604Z,10.48
2022-12-03T12:52:48.111Z,11.93
2022-12-03T12:55:17.298Z,11.40
2022-12-03T12:57:46.704Z,11.38
2022-12-03T13:00:17.231Z,11.00
2022-12-03T13:02:49.711Z,10.07
2022-12-03T13:05:17.981Z,10.88
2022-12-03T13:07:46.313Z,10.65
2022-12-03T13:10:34.207Z,10.07
2022-12-03T13:13:15.822Z,10.68
2022-12-03T13:15:49.276Z,10.25
2022-12-03T13:18:30.406Z,10.57
2022-12-03T13:20:58.303Z,12.18
2022-12-03T13:23:34.506Z,12.00
2022-12-03T13:26:22.334Z,11.55
2022-12-03T13:28:57.680Z,11.20
2022-12-03T13:31:27.846Z,11.68
2022-12-03T13:33:57.030Z,11.68
2022-12-03T13:36:35.721Z,11.73
2022-12-03T13:39:13.483Z,11.88
2022-12-03T13:42:00.083Z,12.20
2022-12-03T13:44:31.678Z,10.98
2022-12-03T13:47:03.047Z,11.32
2022-12-03T13:49:31.125Z,10.55
2022-12-03T13:51:58.874Z,12.30
2022-12-03T13:54:32.489Z,12.40
2022-12-03T13:57:02.544Z,12.20
2022-12-03T13:59:31.648Z,11.95
2022-12-03T14:01:59.532Z,12.20
2022-12-03T14:04:27.571Z,12.43
2022-12-03T14:06:55.345Z,12.68
2022-12-03T14:09:23.209Z,11.10
2022-12-03T14:12:09.035Z,12.27
2022-12-03T14:14:38.227Z,12.15
2022-12-03T14:17:11.748Z,13.02
2022-12-03T14:19:39.616Z,12.30
2022-12-03T14:22:08.707Z,13.20
2022-12-03T14:24:36.520Z,13.35
2022-12-03T14:27:04.347Z,12.48
2022-12-03T14:29:32.146Z,13.52
2022-12-03T14:32:01.604Z,12.55
2022-12-03T14:34:29.313Z,12.60
2022-12-03T14:36:57.016Z,13.30
2022-12-03T14:39:24.698Z,14.68
2022-12-03T14:42:09.669Z,14.27
2022-12-03T14:44:37.333Z,11.80
2022-12-03T14:47:06.546Z,12.73
2022-12-03T14:49:34.689Z,13.00
2022-12-03T14:52:02.611Z,12.70
2022-12-03T14:54:30.307Z,12.05
2022-12-03T14:56:58.095Z,13.70
2022-12-03T14:59:27.952Z,12.00
2022-12-03T15:01:56.420Z,12.05
2022-12-03T15:04:25.747Z,12.05
2022-12-03T15:06:53.586Z,13.65
2022-12-03T15:09:21.325Z,12.25
2022-12-03T15:11:49.022Z,12.70
2022-12-03T15:14:16.770Z,12.90
2022-12-03T15:16:44.590Z,12.23
2022-12-03T15:19:14.956Z,11.85
2022-12-03T15:21:44.033Z,11.52
2022-12-03T15:24:11.733Z,12.93
2022-12-03T15:26:39.472Z,12.15
2022-12-03T15:29:07.353Z,11.75
2022-12-03T15:31:35.046Z,11.88
2022-12-03T15:34:02.786Z,11.82
2022-12-03T15:36:30.480Z,12.10
2022-12-03T15:38:59.506Z,13.75
2022-12-03T15:41:29.791Z,12.88
2022-12-03T15:43:59.447Z,12.82
2022-12-03T15:46:28.428Z,12.07
2022-12-03T15:48:56.757Z,14.48
2022-12-03T15:51:25.506Z,14.75
2022-12-03T15:53:53.293Z,21.30
2022-12-03T15:56:22.357Z,13.20
2022-12-03T15:58:50.121Z,13.40
2022-12-03T16:01:18.474Z,13.88
2022-12-03T16:03:46.983Z,12.52
2022-12-03T16:06:14.825Z,12.05
2022-12-03T16:08:42.540Z,13.18
2022-12-03T16:11:10.251Z,12.45
2022-12-03T16:13:39.427Z,13.93
2022-12-03T16:16:07.448Z,12.80
2022-12-03T16:18:35.304Z,13.07
2022-12-03T16:21:02.938Z,13.13
2022-12-03T16:23:30.665Z,13.73
2022-12-03T16:25:58.364Z,12.68
2022-12-03T16:28:26.090Z,13.40
2022-12-03T16:30:55.240Z,11.40
2022-12-03T16:33:27.576Z,12.15
2022-12-03T16:35:55.864Z,13.00
2022-12-03T16:38:24.959Z,14.90
2022-12-03T16:40:52.685Z,14.48
2022-12-03T16:43:20.363Z,12.70
2022-12-03T16:46:02.835Z,13.05
2022-12-03T16:48:31.914Z,12.40
2022-12-03T16:50:59.576Z,12.07
2022-12-03T16:53:27.322Z,13.13
2022-12-03T16:55:55.028Z,11.25
2022-12-03T16:58:22.894Z,12.35
2022-12-03T17:00:50.768Z,11.00
2022-12-03T17:03:18.734Z,11.60
2022-12-03T17:05:48.563Z,11.35
2022-12-03T17:08:17.107Z,11.88
2022-12-03T17:10:45.759Z,11.98
2022-12-03T17:13:14.019Z,10.55
2022-12-03T17:15:41.818Z,9.98
2022-12-03T17:18:10.107Z,10.80
2022-12-03T17:20:38.312Z,9.70
2022-12-03T17:23:07.463Z,10.50
2022-12-03T17:25:35.377Z,9.93
2022-12-03T17:28:03.206Z,9.48
2022-12-03T17:30:30.951Z,9.82
2022-12-03T17:32:58.658Z,10.43
2022-12-03T17:35:26.757Z,12.15
2022-12-03T17:37:54.441Z,10.85
2022-12-03T17:40:24.169Z,10.13
2022-12-03T17:42:51.969Z,10.27
2022-12-03T17:45:19.666Z,11.02
2022-12-03T17:47:47.471Z,10.73
2022-12-03T17:50:15.139Z,10.20
2022-12-03T17:52:42.800Z,9.73
2022-12-03T17:55:14.469Z,10.10
2022-12-03T17:57:47.078Z,10.05
2022-12-03T18:00:15.343Z,10.32
2022-12-03T18:02:43.088Z,10.48
2022-12-03T18:05:11.233Z,10.25
2022-12-03T18:07:39.029Z,9.55
2022-12-03T18:10:08.281Z,8.43
2022-12-03T18:12:36.017Z,8.85
2022-12-03T18:15:05.769Z,9.43
2022-12-03T18:17:33.912Z,8.57
2022-12-03T18:20:02.248Z,10.43
2022-12-03T18:22:30.292Z,10.20
2022-12-03T18:24:58.223Z,10.73
2022-12-03T18:27:26.078Z,11.30
2022-12-03T18:29:54.107Z,12.10
2022-12-03T18:32:29.215Z,11.65
2022-12-03T18:34:58.285Z,8.98
2022-12-03T18:37:28.018Z,9.50
2022-12-03T18:39:57.582Z,9.93
2022-12-03T18:42:25.892Z,10.35
2022-12-03T18:44:55.639Z,9.27
2022-12-03T18:47:26.431Z,10.77
2022-12-03T18:49:54.940Z,9.68
2022-12-03T18:52:24.841Z,9.00
2022-12-03T18:54:52.576Z,10.15
2022-12-03T18:57:20.259Z,10.85
2022-12-03T18:59:47.985Z,9.98
2022-12-03T19:02:46.046Z,9.35
2022-12-03T19:05:09.223Z,8.95
2022-12-03T19:07:37.162Z,9.38
2022-12-03T19:10:05.438Z,9.95
2022-12-03T19:12:33.791Z,9.65
2022-12-03T19:15:01.703Z,8.50
2022-12-03T19:17:29.610Z,10.13
2022-12-03T19:19:57.631Z,9.93
2022-12-03T19:22:27.130Z,9.38
2022-12-03T19:24:55.066Z,9.23
2022-12-03T19:27:22.797Z,9.73
2022-12-03T19:29:50.938Z,9.70
2022-12-03T19:32:18.673Z,9.52
2022-12-03T19:34:46.584Z,8.73
2022-12-03T19:37:14.411Z,8.38
2022-12-03T19:39:43.916Z,9.82
2022-12-03T19:42:11.591Z,9.80
2022-12-03T19:44:39.932Z,10.57
2022-12-03T19:47:07.618Z,8.80
2022-12-03T19:49:35.343Z,9.90
2022-12-03T19:52:03.056Z,9.75
2022-12-03T19:54:30.732Z,9.40
2022-12-03T19:56:59.841Z,9.50
2022-12-03T19:59:27.544Z,9.40
2022-12-03T20:01:55.380Z,8.70
2022-12-03T20:04:23.250Z,10.07
2022-12-03T20:06:50.919Z,10.73
2022-12-03T20:09:20.528Z,9.35
2022-12-03T20:11:51.567Z,9.68
2022-12-03T20:14:20.928Z,10.77
2022-12-03T20:16:49.202Z,10.20
2022-12-03T20:19:18.467Z,10.73
2022-12-03T20:21:46.411Z,10.50
2022-12-03T20:24:17.004Z,11.07
2022-12-03T20:26:44.973Z,9.98
2022-12-03T20:29:13.087Z,10.05
2022-12-03T20:31:42.223Z,10.60
2022-12-03T20:34:11.763Z,10.25
2022-12-03T20:36:39.903Z,10.52
2022-12-03T20:39:08.591Z,11.13
2022-12-03T20:41:36.891Z,10.98
2022-12-03T20:44:05.912Z,12.48
2022-12-03T20:46:33.837Z,11.65
2022-12-03T20:49:02.969Z,11.57
2022-12-03T20:51:32.123Z,10.23
2022-12-03T20:54:01.184Z,11.45
2022-12-03T20:56:31.178Z,11.45
2022-12-03T20:59:01.366Z,10.75
2022-12-03T21:01:29.553Z,11.52
2022-12-03T21:03:57.872Z,8.45
2022-12-03T21:06:29.926Z,11.48
2022-12-03T21:08:58.979Z,11.38
2022-12-03T21:11:29.451Z,12.63
2022-12-03T21:13:59.285Z,12.95
2022-12-03T21:16:59.099Z,10.55
2022-12-03T21:19:18.142Z,12.98
2022-12-03T21:21:47.219Z,12.02
2022-12-03T21:24:14.988Z,12.50
2022-12-03T21:26:42.915Z,10.80
2022-12-03T21:29:10.692Z,11.63
2022-12-03T21:31:39.742Z,12.38
2022-12-03T21:34:08.460Z,12.65
2022-12-03T21:36:36.356Z,12.38
2022-12-03T21:39:06.201Z,13.10
2022-12-03T21:41:35.039Z,12.18
2022-12-03T21:44:03.257Z,12.13
2022-12-03T21:47:12.050Z,11.25
2022-12-03T21:49:20.196Z,11.07
2022-12-03T21:51:47.975Z,10.63
2022-12-03T21:54:17.007Z,12.00
2022-12-03T21:56:45.035Z,12.18
2022-12-03T21:59:12.904Z,12.13
2022-12-03T22:01:45.693Z,11.88
2022-12-03T22:04:14.923Z,12.75
2022-12-03T22:06:42.614Z,11.38
2022-12-03T22:09:10.383Z,12.13
2022-12-03T22:11:39.551Z,11.60
2022-12-03T22:14:08.418Z,12.48
2022-12-03T22:16:36.360Z,11.93
2022-12-03T22:19:05.012Z,12.98
2022-12-03T22:21:32.736Z,12.88
2022-12-03T22:24:00.410Z,12.05
2022-12-03T22:26:28.272Z,12.10
2022-12-03T22:28:57.308Z,10.90
2022-12-03T22:31:25.025Z,10.73
2022-12-03T22:33:52.783Z,12.93
2022-12-03T22:36:21.911Z,11.55
2022-12-03T22:38:50.154Z,12.57
2022-12-03T22:41:18.885Z,11.18
2022-12-03T22:43:47.872Z,11.82
2022-12-03T22:46:18.156Z,12.52
2022-12-03T22:48:47.462Z,11.18
2022-12-03T22:51:17.759Z,12.50
2022-12-03T22:53:45.695Z,12.63
2022-12-03T22:56:13.426Z,11.98
2022-12-03T22:58:42.118Z,11.63
2022-12-03T23:01:09.957Z,11.85
2022-12-03T23:03:39.012Z,12.13
2022-12-03T23:06:11.714Z,12.10
2022-12-03T23:08:39.684Z,12.35
2022-12-03T23:11:07.796Z,12.25
2022-12-03T23:13:35.691Z,12.73
2022-12-03T23:16:04.025Z,12.30
2022-12-03T23:18:32.371Z,11.98
2022-12-03T23:21:01.473Z,12.00
2022-12-03T23:23:29.478Z,11.77
2022-12-03T23:25:58.623Z,12.20
2022-12-03T23:28:26.617Z,11.48
2022-12-03T23:30:54.800Z,12.98
2022-12-03T23:33:23.081Z,13.00
2022-12-03T23:35:50.821Z,12.57
2022-12-03T23:38:19.881Z,11.43
2022-12-03T23:40:48.440Z,10.05
2022-12-03T23:43:16.423Z,13.63
2022-12-03T23:45:44.137Z,12.40
2022-12-03T23:48:12.530Z,12.57
2022-12-03T23:50:41.156Z,12.15
2022-12-03T23:53:09.006Z,11.23
2022-12-03T23:55:41.371Z,12.85
2022-12-03T23:58:09.043Z,13.30
